ソウル/仁川 の空港の天気 - METARとTAF

仁川国際空港 ( RKSI / ICN ) - 韓国 仁川広域市 (ソウル特別市近郊)
飛行場実況気象(Metar)
観測時間04/21 23:30 KST (04/21 14:30 UTC)
風向・風速西北西 2m/s
視程10km以上
天気現象
なし
気温10℃
湿度82%
気圧1015hPa
METARRKSI 211430Z 30003KT 260V320 CAVOK 10/07 Q1015 NOSIG
過去の天気等 Google飛行場航空写真 Wunderground天気予報

過去48時間のMETAR

飛行場予報(TAF)
発表時間: 4/21 20:00 KST (4/21 11:00 UTC)
予報対象時間: 21日21時 KST ~ 23日3時 KST
風向・風速西北西 3m/s
視程6000m
全天の4割程度の雲 雲底高度 300m
全天の8割程度の雲 雲底高度 5490m
22日1時 KST ~ 22日2時 KST に徐々に
風向・風速南 3m/s
視程2500m
天気現象もや
22日4時 KST ~ 22日5時 KST に徐々に
風向・風速西 3m/s
視程1100m
22日6時 KST ~ 22日7時 KST に徐々に
風向・風速南南東 3m/s
視程2000m
22日11時 KST ~ 22日12時 KST に徐々に
風向・風速西北西 3m/s
視程6000m
天気現象運行に影響にある天気現象が終了
なし
22日20時 KST ~ 22日21時 KST に徐々に
風向・風速南 3m/s
視程3500m
天気現象もや
TAF RKSI 211100Z 2112/2218 29005KT 6000 SCT010 BKN180 TN08/2121Z TX19/2206Z
BECMG 2116/2117 19005KT 2500 BR
BECMG 2119/2120 27005KT 1100
BECMG 2121/2122 16005KT 2000
BECMG 2202/2203 29006KT 6000 NSW NSC
BECMG 2211/2212 17005KT 3500 BR